Flight Track Log - Related Links

Times and Time Zones

All times are in EST time to prevent confusion due to time zone crossing. See the GJS6221 flight status page for this flight to view local times or setup timezone preferences in your user account.

Time Position Orientation Groundspeed Altitude Reporting Facility
EST Latitude Longitude Course Direction KTS MPH feet Rate Location/Type
Sun 02:40:03 PM 40.7667 -73.8500 180° South 152 175 1,600  Level New York TRACON
Sun 02:41:03 PM 40.7167 -73.8500 180° South 176 203 4,800 2,700 Climbing New York TRACON
Sun 02:42:03 PM 40.6667 -73.8500 180° South 193 222 7,000 2,150 Climbing New York TRACON
Sun 02:43:03 PM 40.6167 -73.9000 217° Southwest 224 258 9,100 2,450 Climbing New York TRACON
Sun 02:44:03 PM 40.5667 -73.9333 207° Southwest 222 255 11,900 1,969 Climbing New York TRACON
Sun 02:46:15 PM 40.4250 -74.0289 207° Southwest 265 305 15,400 1,331 Climbing New York Center
Sun 02:48:11 PM 40.2856 -74.1039 202° Southwest 299 344 17,400 1,159 Climbing Washington Center
Sun 02:49:11 PM 40.2069 -74.1628 210° Southwest 319 367 18,800 1,350 Climbing Washington Center
Sun 02:50:11 PM 40.1331 -74.2456 221° Southwest 332 382 20,100 1,289 Climbing Washington Center
Sun 02:51:12 PM 40.0589 -74.3231 219° Southwest 343 395 21,400 1,210 Climbing Washington Center
Sun 02:52:10 PM 39.9847 -74.3975 218° Southwest 343 395 22,500 1,119 Climbing Washington Center
Sun 02:53:10 PM 39.9083 -74.4797 220° Southwest 353 406 23,600 1,041 Climbing Washington Center
Sun 02:54:11 PM 39.8300 -74.5622 219° Southwest 359 413 24,600 984 Climbing Washington Center
Sun 02:55:12 PM 39.7514 -74.6442 219° Southwest 359 413 25,600 1,000 Climbing Washington Center
Sun 02:56:11 PM 39.6647 -74.7344 219° Southwest 364 419 26,600 1,008 Climbing Washington Center
Sun 02:57:11 PM 39.5861 -74.8161 219° Southwest 364 419 27,600 1,041 Climbing Washington Center
Sun 02:58:12 PM 39.5094 -74.8950 218° Southwest 370 426 28,700 1,041 Climbing Washington Center
Sun 02:59:12 PM 39.4264 -74.9683 214° Southwest 370 426 29,700 992 Climbing Washington Center
Sun 03:00:13 PM 39.3433 -75.0333 211° Southwest 364 419 30,700 1,017 Climbing Washington Center
Sun 03:01:10 PM 39.2625 -75.0983 212° Southwest 359 413 31,700 1,008 Climbing Washington Center
Sun 03:02:12 PM 39.1814 -75.1606 211° Southwest 354 407 32,700 900 Climbing Washington Center
Sun 03:03:10 PM 39.1025 -75.2225 211° Southwest 344 396 33,500 807 Climbing Washington Center
Sun 03:04:11 PM 39.0214 -75.2844 211° Southwest 339 390 34,300 738 Climbing Washington Center
Sun 03:05:12 PM 38.9422 -75.3514 213° Southwest 339 390 35,000 706 Climbing Washington Center
Sun 03:06:10 PM 38.8631 -75.4103 210° Southwest 339 390 35,700 500 Climbing Washington Center
Sun 03:07:12 PM 38.7839 -75.4692 210° Southwest 339 390 36,000 150 Climbing Washington Center
Sun 03:08:10 PM 38.7069 -75.5306 212° Southwest 339 390 36,000  Level Washington Center
Sun 03:09:11 PM 38.6278 -75.5889 210° Southwest 339 390 36,000  Level Washington Center
Sun 03:10:11 PM 38.5506 -75.6528 213° Southwest 339 390 36,000  Level Washington Center
Sun 03:11:10 PM 38.4733 -75.7083 209° Southwest 339 390 36,000  Level Washington Center
Sun 03:12:12 PM 38.3983 -75.7664 211° Southwest 334 384 36,000  Level Washington Center
Sun 03:13:12 PM 38.3231 -75.8219 210° Southwest 329 379 36,000  Level Washington Center
Sun 03:14:13 PM 38.2458 -75.8772 209° Southwest 324 373 36,000  Level Washington Center
Sun 03:15:11 PM 38.1747 -75.9325 211° Southwest 313 360 36,000  Level Washington Center
Sun 03:16:12 PM 38.0994 -75.9875 210° Southwest 313 360 36,000  Level Washington Center
Sun 03:17:12 PM 38.0222 -76.0453 211° Southwest 313 360 36,000  Level Washington Center
Sun 03:18:13 PM 37.9489 -76.1000 210° Southwest 313 360 36,000  Level Washington Center
Sun 03:19:11 PM 37.8758 -76.1575 212° Southwest 313 360 36,000  Level Washington Center
Sun 03:20:12 PM 37.8025 -76.2119 210° Southwest 313 360 36,000  Level Washington Center
Sun 03:21:12 PM 37.7269 -76.2667 210° Southwest 313 360 36,000  Level Washington Center
Sun 03:22:10 PM 37.6536 -76.3236 212° Southwest 313 360 36,000  Level Washington Center
Sun 03:23:11 PM 37.5783 -76.3806 211° Southwest 313 360 36,000  Level Washington Center
Sun 03:24:11 PM 37.5028 -76.4347 210° Southwest 313 360 36,000  Level Washington Center
Sun 03:25:11 PM 37.4275 -76.4889 210° Southwest 313 360 36,000  Level Washington Center
Sun 03:26:10 PM 37.3519 -76.5428 210° Southwest 313 360 36,000  Level Washington Center
Sun 03:27:10 PM 37.2764 -76.5994 211° Southwest 313 360 36,000  Level Washington Center
Sun 03:28:11 PM 37.2008 -76.6558 211° Southwest 313 360 36,000  Level Washington Center
Sun 03:29:11 PM 37.1272 -76.7172 214° Southwest 313 360 36,000  Level Washington Center
Sun 03:30:12 PM 37.0597 -76.7839 218° Southwest 313 360 36,000  Level Washington Center
Sun 03:31:14 PM 36.9922 -76.8531 219° Southwest 313 360 36,000  Level Washington Center
Sun 03:32:11 PM 36.9228 -76.9194 217° Southwest 319 367 36,000  Level Washington Center
Sun 03:33:12 PM 36.8531 -76.9858 217° Southwest 319 367 36,000  Level Washington Center
Sun 03:34:10 PM 36.7836 -77.0544 218° Southwest 319 367 36,000  Level Washington Center
Sun 03:35:10 PM 36.7139 -77.1206 217° Southwest 319 367 36,000  Level Washington Center
Sun 03:36:11 PM 36.6419 -77.1892 217° Southwest 324 373 36,000  Level Washington Center
Sun 03:37:12 PM 36.5722 -77.2550 217° Southwest 324 373 36,000  Level Washington Center
Sun 03:38:10 PM 36.5025 -77.3206 217° Southwest 324 373 36,000  Level Washington Center
Sun 03:39:10 PM 36.4325 -77.3889 218° Southwest 324 373 36,000  Level Washington Center
Sun 03:40:10 PM 36.3628 -77.4542 217° Southwest 324 373 36,000  Level Washington Center
Sun 03:41:11 PM 36.2992 -77.5144 217° Southwest 317 365 36,000  Level Washington Center
Sun 03:42:11 PM 36.2292 -77.5797 217° Southwest 322 371 36,000  Level Washington Center
Sun 03:43:12 PM 36.1572 -77.6475 217° Southwest 322 371 36,000  Level Washington Center
Sun 03:44:10 PM 36.0872 -77.7150 218° Southwest 322 371 36,000  Level Washington Center
Sun 03:45:10 PM 36.0150 -77.7825 217° Southwest 322 371 36,000  Level Washington Center
Sun 03:46:11 PM 35.9408 -77.8472 215° Southwest 322 371 36,000  Level Washington Center
Sun 03:47:12 PM 35.8706 -77.9169 219° Southwest 322 371 36,000  Level Washington Center
Sun 03:48:13 PM 35.7964 -77.9839 216° Southwest 322 371 36,000  Level Washington Center
Sun 03:49:11 PM 35.7239 -78.0508 217° Southwest 322 371 36,000  Level Washington Center
Sun 03:50:12 PM 35.6494 -78.1175 216° Southwest 322 371 36,000  Level Washington Center
Sun 03:51:10 PM 35.5731 -78.1867 216° Southwest 327 376 36,000  Level Washington Center
Sun 03:52:11 PM 35.4983 -78.2531 216° Southwest 332 382 36,000  Level Washington Center
Sun 03:53:11 PM 35.4217 -78.3219 216° Southwest 343 395 36,000  Level Washington Center
Sun 03:54:12 PM 35.3364 -78.4003 217° Southwest 348 400 36,000  Level Washington Center
Sun 03:55:10 PM 35.2575 -78.4739 217° Southwest 348 400 36,000  Level Washington Center
Sun 03:56:10 PM 35.1828 -78.5450 218° Southwest 348 400 36,000  Level Washington Center
Sun 03:57:11 PM 35.1058 -78.6158 217° Southwest 348 400 36,000  Level Washington Center
Sun 03:58:11 PM 35.0247 -78.6889 216° Southwest 348 400 36,000  Level Washington Center
Sun 03:59:12 PM 34.9478 -78.7594 217° Southwest 348 400 36,000  Level Washington Center
Sun 04:00:10 PM 34.8686 -78.8297 216° Southwest 348 400 36,000  Level Washington Center
Sun 04:02:31 PM 34.6794 -78.9972 216° Southwest 357 411 36,000  Level Jacksonville Center
Sun 04:03:31 PM 34.6006 -79.0714 218° Southwest 357 411 36,000  Level Jacksonville Center
Sun 04:04:31 PM 34.5172 -79.1431 215° Southwest 357 411 36,000  Level Jacksonville Center
Sun 04:05:31 PM 34.4361 -79.2219 219° Southwest 369 425 36,000 -100 Level Jacksonville Center
Sun 04:06:31 PM 34.3525 -79.2961 216° Southwest 374 430 35,800 -750 Descending Jacksonville Center
Sun 04:07:31 PM 34.2672 -79.3725 217° Southwest 379 436 34,500 -900 Descending Jacksonville Center
Sun 04:08:31 PM 34.1856 -79.4386 214° Southwest 379 436 34,000 -250 Descending Jacksonville Center
Sun 04:09:31 PM 34.1042 -79.5119 217° Southwest 366 421 34,000  Level Jacksonville Center
Sun 04:10:31 PM 34.0164 -79.5881 216° Southwest 377 434 34,000  Level Jacksonville Center
Sun 04:11:31 PM 33.9286 -79.6639 216° Southwest 384 442 34,000 -200 Level Jacksonville Center
Sun 04:12:31 PM 33.8431 -79.7394 216° Southwest 384 442 33,600 -1,000 Descending Jacksonville Center
Sun 04:13:31 PM 33.7592 -79.8150 217° Southwest 384 442 32,000 -1,550 Descending Jacksonville Center
Sun 04:14:31 PM 33.6756 -79.8878 216° Southwest 379 436 30,500 -1,500 Descending Jacksonville Center
Sun 04:15:31 PM 33.5917 -79.9606 216° Southwest 379 436 29,000 -1,650 Descending Jacksonville Center
Sun 04:16:31 PM 33.5097 -80.0303 215° Southwest 379 436 27,200 -1,850 Descending Jacksonville Center
Sun 04:17:31 PM 33.4258 -80.1028 216° Southwest 379 436 25,300 -1,900 Descending Jacksonville Center
Sun 04:18:31 PM 33.3439 -80.1775 217° Southwest 379 436 23,400 -1,900 Descending Jacksonville Center
Sun 04:19:31 PM 33.2619 -80.2469 215° Southwest 379 436 21,500 -1,600 Descending Jacksonville Center
Sun 04:20:31 PM 33.1881 -80.3089 215° Southwest 372 428 20,200 -750 Descending Jacksonville Center
Sun 04:21:31 PM 33.1081 -80.3781 216° Southwest 367 422 20,000 -100 Descending Jacksonville Center
Sun 04:22:31 PM 33.0281 -80.4472 216° Southwest 360 414 20,000 -750 Level Jacksonville Center
Sun 04:23:31 PM 32.9500 -80.5111 214° Southwest 360 414 18,500 -1,900 Descending Jacksonville Center
Sun 04:24:31 PM 32.8758 -80.5725 215° Southwest 348 400 16,200 -2,200 Descending Jacksonville Center
Sun 04:25:31 PM 32.8039 -80.6336 216° Southwest 330 380 14,100 -1,950 Descending Jacksonville Center
Sun 04:26:31 PM 32.7403 -80.6894 216° Southwest 314 361 12,300 -1,500 Descending Jacksonville Center
Sun 04:27:31 PM 32.6786 -80.7406 215° Southwest 299 344 11,100 -1,500 Descending Jacksonville Center
Sun 04:28:31 PM 32.6189 -80.7911 215° Southwest 252 290 9,300 -1,700 Descending Jacksonville Center
Sun 04:29:31 PM 32.5714 -80.8317 216° Southwest 242 278 7,700 -1,550 Descending Jacksonville Center
Sun 04:30:31 PM 32.5011 -80.8653 202° Southwest 247 284 6,200 -1,400 Descending Jacksonville Center
Sun 04:31:31 PM 32.4367 -80.8889 197° South 247 284 4,900 -1,150 Descending Jacksonville Center
Sun 04:32:31 PM 32.3703 -80.9125 197° South 241 277 3,900 -1,000 Descending Jacksonville Center
Sun 04:34:00 PM 32.2757 -81.0257 212° Southwest  Level Estimated
Sun 04:41:00 PM 32.1167 -81.2000 180° South  Level FlightAware Approximate
Sun 04:42:00 PM 32.1276 -81.2021 180° South  Level Estimated
Sun 04:43:00 PM 32.1276 -81.2021 180° South  Level Estimated
Sun 04:44:00 PM 32.1276 -81.2021 180° South  Level Estimated
Sun 04:45:00 PM 32.1276 -81.2021 180° South  Level Estimated
Sun 04:46:00 PM 32.1276 -81.2021 180° South  Level Estimated
Sun 04:47:00 PM 32.1276 -81.2021 180° South  Level Estimated
Sun 04:48:00 PM 32.1276 -81.2021 180° South  Level Estimated
Sun 04:49:00 PM 32.1276 -81.2021 180° South  Level Estimated

Login

Don't have an account? Register now (free) for customized features, flight alerts, and more!